MSC Brianna — 3FVZ7 — position and weather

sailwx.info

Track history (hours):
 
Tides and Currents Weather Stations Pressure Air Temp Water Temp Dewpoint Dewpoint Depression Visibility Wind Speed Wind Dir Waves Ship Positions

MSC Brianna

Last reported at 2017-Nov-23 06:29 UTC. Time now 2017-Nov-25 07:58 UTC.
Position N 39°38' E 024°06'.

Length 294 m; draft 11.2 m.

Type: Ship (hazmat cat A). MMSI: 353612000.

Date/timePositionNaut miles runAvg speedWind from/ knotsBaromVisibWave heightAir tempDewpointWater temp
2017-Nov-23 06:29N 39°38' E 024°06'11316.8
2017-Nov-22 23:46N 37°45' E 024°23'720.5
2017-Nov-22 23:24N 37°41' E 024°16'819.9
2017-Nov-22 23:01N 37°36' E 024°07'1020.3
2017-Nov-22 22:30N 37°36' E 023°55'1019.8
2017-Nov-22 22:00N 37°39' E 023°43'918.4
2017-Nov-22 21:31N 37°47' E 023°38'713.6
2017-Nov-22 21:00N 37°54' E 023°37'3 6.0
2017-Nov-22 20:28N 37°57' E 023°36'0 0.0
2017-Nov-22 19:58N 37°57' E 023°36'0 0.0
2017-Nov-22 19:28N 37°57' E 023°36'  
2017-Nov-20 00:28N 38°27' E 015°54'0 0.0
2017-Nov-19 23:58N 38°27' E 015°54'0 0.0
2017-Nov-19 22:46N 38°27' E 015°54'0 0.0
2017-Nov-19 20:46N 38°27' E 015°54'0 0.0
2017-Nov-19 16:28N 38°27' E 015°54'0 0.0
2017-Nov-19 14:46N 38°27' E 015°54'0 0.0
2017-Nov-19 13:40N 38°27' E 015°54'0 0.0
2017-Nov-19 11:10N 38°27' E 015°54'0 0.0
2017-Nov-19 10:58N 38°27' E 015°54'0 0.0
2017-Nov-19 10:28N 38°27' E 015°54'0 0.0
2017-Nov-19 09:58N 38°27' E 015°54'0 0.0
2017-Nov-19 09:28N 38°27' E 015°54'1 1.9
2017-Nov-19 08:59N 38°27' E 015°53'3 4.1
2017-Nov-19 08:17N 38°28' E 015°50'2 7.5
2017-Nov-19 08:01N 38°29' E 015°48'1 2.8
2017-Nov-19 07:30N 38°30' E 015°47'0 0.2
2017-Nov-19 06:59N 38°30' E 015°47'2 3.1
2017-Nov-19 06:28N 38°32' E 015°46'0 0.7
2017-Nov-19 05:59N 38°31' E 015°46'1 1.2
2017-Nov-19 05:29N 38°31' E 015°46'1 1.1
2017-Nov-19 04:59N 38°30' E 015°45'0 0.9
2017-Nov-19 04:29N 38°30' E 015°45'0 0.5
2017-Nov-19 04:00N 38°30' E 015°45'0 0.5
2017-Nov-19 03:30N 38°30' E 015°45'0 1.0
2017-Nov-19 03:01N 38°30' E 015°45'0 0.8
2017-Nov-19 02:30N 38°30' E 015°45'0 0.5
2017-Nov-19 02:00N 38°30' E 015°45'0 0.7
2017-Nov-19 01:31N 38°29' E 015°46'0 0.5
2017-Nov-19 01:01N 38°29' E 015°46'0 0.3
2017-Nov-19 00:30N 38°29' E 015°46'0 0.7
2017-Nov-19 00:00N 38°29' E 015°45'0 0.8
2017-Nov-18 23:30N 38°29' E 015°45'0 0.8
2017-Nov-18 23:01N 38°29' E 015°45'1 1.2
2017-Nov-18 22:31N 38°28' E 015°44'1 2.3
2017-Nov-18 22:00N 38°27' E 015°44'510.8
2017-Nov-18 21:30N 38°25' E 015°37'612.9
2017-Nov-18 21:00N 38°23' E 015°30'612.7
2017-Nov-18 20:31N 38°22' E 015°22'612.8
2017-Nov-18 20:01N 38°21' E 015°14'612.9
2017-Nov-18 19:31N 38°19' E 015°06'612.5
2017-Nov-18 19:01N 38°18' E 014°58'612.6
2017-Nov-18 18:31N 38°18' E 014°50'612.6
2017-Nov-18 18:00N 38°18' E 014°42'612.6
2017-Nov-18 17:30N 38°18' E 014°34'612.4
2017-Nov-18 17:01N 38°18' E 014°26'612.4
2017-Nov-18 16:30N 38°18' E 014°18'1512.4
2017-Nov-18 15:16N 38°18' E 013°58'312.7
2017-Nov-18 15:00N 38°18' E 013°54'612.6
2017-Nov-18 14:30N 38°18' E 013°46'612.4
2017-Nov-18 14:00N 38°18' E 013°38'612.5
2017-Nov-18 13:31N 38°18' E 013°30'612.6
2017-Nov-18 13:00N 38°18' E 013°22'612.5
2017-Nov-18 12:30N 38°19' E 013°14'612.3
2017-Nov-18 12:00N 38°19' E 013°06'612.4
2017-Nov-18 11:30N 38°19' E 012°59'612.5
2017-Nov-18 11:00N 38°19' E 012°51'712.5
2017-Nov-18 10:27N 38°18' E 012°42'512.3
2017-Nov-18 10:00N 38°18' E 012°35'  
2017-Nov-16 04:29N 36°01' W 005°11'919.0
2017-Nov-16 04:00N 35°59' W 005°22'21610.5
2017-Nov-15 07:23N 37°06' W 009°38'717.9
2017-Nov-15 07:00N 37°12' W 009°40'918.0
2017-Nov-15 06:29N 37°21' W 009°42'917.9
2017-Nov-15 06:00N 37°30' W 009°45'918.0
2017-Nov-15 05:30N 37°38' W 009°48'1118.1
2017-Nov-15 04:55N 37°49' W 009°50'717.8
2017-Nov-15 04:30N 37°56' W 009°53'918.0
2017-Nov-15 04:00N 38°05' W 009°56'918.0
2017-Nov-15 03:30N 38°14' W 009°58'918.2
2017-Nov-15 03:00N 38°22' W 010°00'917.9
2017-Nov-15 02:30N 38°31' W 010°03'918.0
2017-Nov-15 02:00N 38°40' W 010°05'917.8
2017-Nov-15 01:30N 38°49' W 010°06'918.0
2017-Nov-15 01:00N 38°58' W 010°06'918.0
2017-Nov-15 00:30N 39°07' W 010°06'917.8
2017-Nov-15 00:00N 39°16' W 010°06'  
Track history (hours):
 
Tides and Currents Weather Stations Pressure Air Temp Water Temp Dewpoint Dewpoint Depression Visibility Wind Speed Wind Dir Waves Ship Positions

MSC Brianna

Last reported at 2017-Nov-23 06:29 UTC. Time now 2017-Nov-25 07:58 UTC.
Position N 39°38' E 024°06'.

Length 294 m; draft 11.2 m.

Type: Ship (hazmat cat A). MMSI: 353612000.

Date/timePositionNaut miles runAvg speedWind from/ knotsBaromVisibWave heightAir tempDewpointWater temp
2017-Nov-23 06:29N 39°38' E 024°06'11316.8
2017-Nov-22 23:46N 37°45' E 024°23'720.5
2017-Nov-22 23:24N 37°41' E 024°16'819.9
2017-Nov-22 23:01N 37°36' E 024°07'1020.3
2017-Nov-22 22:30N 37°36' E 023°55'1019.8
2017-Nov-22 22:00N 37°39' E 023°43'918.4
2017-Nov-22 21:31N 37°47' E 023°38'713.6
2017-Nov-22 21:00N 37°54' E 023°37'3 6.0
2017-Nov-22 20:28N 37°57' E 023°36'0 0.0
2017-Nov-22 19:58N 37°57' E 023°36'0 0.0
2017-Nov-22 19:28N 37°57' E 023°36'  
2017-Nov-20 00:28N 38°27' E 015°54'0 0.0
2017-Nov-19 23:58N 38°27' E 015°54'0 0.0
2017-Nov-19 22:46N 38°27' E 015°54'0 0.0
2017-Nov-19 20:46N 38°27' E 015°54'0 0.0
2017-Nov-19 16:28N 38°27' E 015°54'0 0.0
2017-Nov-19 14:46N 38°27' E 015°54'0 0.0
2017-Nov-19 13:40N 38°27' E 015°54'0 0.0
2017-Nov-19 11:10N 38°27' E 015°54'0 0.0
2017-Nov-19 10:58N 38°27' E 015°54'0 0.0
2017-Nov-19 10:28N 38°27' E 015°54'0 0.0
2017-Nov-19 09:58N 38°27' E 015°54'0 0.0
2017-Nov-19 09:28N 38°27' E 015°54'1 1.9
2017-Nov-19 08:59N 38°27' E 015°53'3 4.1
2017-Nov-19 08:17N 38°28' E 015°50'2 7.5
2017-Nov-19 08:01N 38°29' E 015°48'1 2.8
2017-Nov-19 07:30N 38°30' E 015°47'0 0.2
2017-Nov-19 06:59N 38°30' E 015°47'2 3.1
2017-Nov-19 06:28N 38°32' E 015°46'0 0.7
2017-Nov-19 05:59N 38°31' E 015°46'1 1.2
2017-Nov-19 05:29N 38°31' E 015°46'1 1.1
2017-Nov-19 04:59N 38°30' E 015°45'0 0.9
2017-Nov-19 04:29N 38°30' E 015°45'0 0.5
2017-Nov-19 04:00N 38°30' E 015°45'0 0.5
2017-Nov-19 03:30N 38°30' E 015°45'0 1.0
2017-Nov-19 03:01N 38°30' E 015°45'0 0.8
2017-Nov-19 02:30N 38°30' E 015°45'0 0.5
2017-Nov-19 02:00N 38°30' E 015°45'0 0.7
2017-Nov-19 01:31N 38°29' E 015°46'0 0.5
2017-Nov-19 01:01N 38°29' E 015°46'0 0.3
2017-Nov-19 00:30N 38°29' E 015°46'0 0.7
2017-Nov-19 00:00N 38°29' E 015°45'0 0.8
2017-Nov-18 23:30N 38°29' E 015°45'0 0.8
2017-Nov-18 23:01N 38°29' E 015°45'1 1.2
2017-Nov-18 22:31N 38°28' E 015°44'1 2.3
2017-Nov-18 22:00N 38°27' E 015°44'510.8
2017-Nov-18 21:30N 38°25' E 015°37'612.9
2017-Nov-18 21:00N 38°23' E 015°30'612.7
2017-Nov-18 20:31N 38°22' E 015°22'612.8
2017-Nov-18 20:01N 38°21' E 015°14'612.9
2017-Nov-18 19:31N 38°19' E 015°06'612.5
2017-Nov-18 19:01N 38°18' E 014°58'612.6
2017-Nov-18 18:31N 38°18' E 014°50'612.6
2017-Nov-18 18:00N 38°18' E 014°42'612.6
2017-Nov-18 17:30N 38°18' E 014°34'612.4
2017-Nov-18 17:01N 38°18' E 014°26'612.4
2017-Nov-18 16:30N 38°18' E 014°18'1512.4
2017-Nov-18 15:16N 38°18' E 013°58'312.7
2017-Nov-18 15:00N 38°18' E 013°54'612.6
2017-Nov-18 14:30N 38°18' E 013°46'612.4
2017-Nov-18 14:00N 38°18' E 013°38'612.5
2017-Nov-18 13:31N 38°18' E 013°30'612.6
2017-Nov-18 13:00N 38°18' E 013°22'612.5
2017-Nov-18 12:30N 38°19' E 013°14'612.3
2017-Nov-18 12:00N 38°19' E 013°06'612.4
2017-Nov-18 11:30N 38°19' E 012°59'612.5
2017-Nov-18 11:00N 38°19' E 012°51'712.5
2017-Nov-18 10:27N 38°18' E 012°42'512.3
2017-Nov-18 10:00N 38°18' E 012°35'  
2017-Nov-16 04:29N 36°01' W 005°11'919.0
2017-Nov-16 04:00N 35°59' W 005°22'21610.5
2017-Nov-15 07:23N 37°06' W 009°38'717.9
2017-Nov-15 07:00N 37°12' W 009°40'918.0
2017-Nov-15 06:29N 37°21' W 009°42'917.9
2017-Nov-15 06:00N 37°30' W 009°45'918.0
2017-Nov-15 05:30N 37°38' W 009°48'1118.1
2017-Nov-15 04:55N 37°49' W 009°50'717.8
2017-Nov-15 04:30N 37°56' W 009°53'918.0
2017-Nov-15 04:00N 38°05' W 009°56'918.0
2017-Nov-15 03:30N 38°14' W 009°58'918.2
2017-Nov-15 03:00N 38°22' W 010°00'917.9
2017-Nov-15 02:30N 38°31' W 010°03'918.0
2017-Nov-15 02:00N 38°40' W 010°05'917.8
2017-Nov-15 01:30N 38°49' W 010°06'918.0
2017-Nov-15 01:00N 38°58' W 010°06'918.0
2017-Nov-15 00:30N 39°07' W 010°06'917.8
2017-Nov-15 00:00N 39°16' W 010°06'  

Dump ship's entire track history